Time;durP1;ratioP1;P1;durP2;ratioP2;P2;SDS_P1;SDS_P2;PMS_P1;PMS_P2;Temp;Humidity;BMP_temperature;BMP_pressure;BME280_temperature;BME280_humidity;BME280_pressure;Samples;Min_cycle;Max_cycle;Signal;HPM_P1;HPM_P2
2023/04/06 00:03:37;;;;;;;9.47;5.57;;;-1.00;99.90;;;;;;5041689;28;20084;-96
2023/04/06 00:06:07;;;;;;;9.67;5.87;;;-1.00;99.90;;;;;;5065496;28;20026;-96
2023/04/06 00:08:36;;;;;;;9.60;5.83;;;-1.00;99.90;;;;;;5050933;28;20029;-96
2023/04/06 00:11:20;;;;;;;11.33;6.27;;;-1.00;99.90;;;;;;5064194;28;20483;-96
2023/04/06 00:13:49;;;;;;;10.67;6.47;;;-1.00;99.90;;;;;;5064448;28;20067;-96
2023/04/06 00:16:40;;;;;;;9.87;6.17;;;-1.00;99.90;;;;;;5048075;28;20017;-96
2023/04/06 00:19:37;;;;;;;12.37;6.90;;;-1.00;99.90;;;;;;5054572;28;20037;-96
2023/04/06 00:22:20;;;;;;;11.57;7.00;;;-1.10;99.90;;;;;;5069420;28;20021;-96
2023/04/06 00:24:50;;;;;;;15.10;8.33;;;-1.10;99.90;;;;;;5051458;28;20470;-96
2023/04/06 00:27:16;;;;;;;16.47;9.40;;;-1.10;99.90;;;;;;5052664;28;20027;-96
2023/04/06 00:29:50;;;;;;;19.87;11.20;;;-1.20;99.90;;;;;;5054248;28;20040;-96
2023/04/06 00:32:19;;;;;;;16.60;9.63;;;-1.10;99.90;;;;;;5050892;28;20105;-96
2023/04/06 00:35:18;;;;;;;14.73;8.37;;;-1.20;99.90;;;;;;5050312;28;20021;-96
2023/04/06 00:37:48;;;;;;;15.60;7.87;;;-1.20;99.90;;;;;;5049295;28;20318;-96
2023/04/06 00:40:17;;;;;;;13.03;9.10;;;-1.30;99.90;;;;;;5063801;28;20085;-96
2023/04/06 00:42:48;;;;;;;13.83;7.37;;;-1.30;99.90;;;;;;5045199;28;20444;-96
2023/04/06 00:45:17;;;;;;;15.27;9.33;;;-1.40;99.90;;;;;;5043771;28;20432;-96
2023/04/06 00:47:43;;;;;;;18.20;9.13;;;-1.40;99.90;;;;;;5057507;28;20026;-96
2023/04/06 00:50:10;;;;;;;17.60;8.93;;;-1.40;99.90;;;;;;5058355;28;20478;-95
2023/04/06 00:52:37;;;;;;;19.47;9.97;;;-1.40;99.90;;;;;;5057216;28;20036;-96
2023/04/06 00:55:05;;;;;;;15.47;7.93;;;-1.50;99.90;;;;;;5057206;28;20045;-96
2023/04/06 00:57:31;;;;;;;14.53;7.87;;;-1.50;99.90;;;;;;5042440;28;20432;-96
2023/04/06 00:59:57;;;;;;;12.63;8.00;;;-1.50;99.90;;;;;;5058975;28;20021;-96
2023/04/06 01:02:25;;;;;;;11.57;7.17;;;-1.50;99.90;;;;;;5058442;28;20166;-96
2023/04/06 02:32:38;;;;;;;10.53;5.87;;;-2.10;99.90;;;;;;5032910;28;20059;-94
2023/04/06 02:35:05;;;;;;;10.27;6.50;;;-2.10;99.90;;;;;;5021254;28;20040;-94
2023/04/06 02:37:32;;;;;;;11.47;6.57;;;-2.10;99.90;;;;;;5021809;28;20366;-94
2023/04/06 02:39:58;;;;;;;12.57;6.80;;;-2.10;99.90;;;;;;5040049;28;20421;-95
2023/04/06 02:42:25;;;;;;;13.10;6.67;;;-2.10;99.90;;;;;;5032545;28;20030;-93
2023/04/06 02:44:51;;;;;;;14.07;7.40;;;-2.20;99.90;;;;;;5038556;28;20453;-95
2023/04/06 02:47:17;;;;;;;10.73;7.30;;;-2.20;99.90;;;;;;5019522;28;20314;-94
2023/04/06 02:49:44;;;;;;;8.77;5.93;;;-2.20;99.90;;;;;;5018429;28;20033;-94
2023/04/06 02:52:15;;;;;;;13.70;7.80;;;-2.20;99.90;;;;;;5022406;28;20161;-95
2023/04/06 02:54:40;;;;;;;9.80;6.87;;;-2.20;99.90;;;;;;5020356;28;20404;-94
2023/04/06 02:57:07;;;;;;;13.67;6.83;;;-2.20;99.90;;;;;;5022630;28;20025;-95
2023/04/06 02:59:33;;;;;;;11.50;6.60;;;-2.20;99.90;;;;;;5033450;28;20026;-93
2023/04/06 03:02:00;;;;;;;10.47;6.37;;;-2.20;99.90;;;;;;5033915;28;20530;-94
2023/04/06 03:04:27;;;;;;;11.33;6.93;;;-2.20;99.90;;;;;;5032340;28;20026;-94
2023/04/06 03:06:55;;;;;;;11.17;6.77;;;-2.30;99.90;;;;;;5025388;28;20116;-94
2023/04/06 03:09:21;;;;;;;9.33;6.20;;;-2.30;99.90;;;;;;5021202;28;20022;-95
2023/04/06 03:11:48;;;;;;;12.20;6.37;;;-2.40;99.90;;;;;;5021547;28;20056;-96
2023/04/06 03:14:14;;;;;;;9.40;6.50;;;-2.40;99.90;;;;;;5021672;28;20040;-95
2023/04/06 03:16:40;;;;;;;11.10;6.80;;;-2.40;99.90;;;;;;5021060;28;20409;-96
2023/04/06 03:19:06;;;;;;;12.53;7.20;;;-2.40;99.90;;;;;;5037408;28;20116;-96
2023/04/06 03:21:32;;;;;;;13.97;7.50;;;-2.50;99.90;;;;;;5020509;28;20030;-96
2023/04/06 03:23:58;;;;;;;13.23;7.20;;;-2.50;99.90;;;;;;5022055;28;20388;-94
2023/04/06 03:26:25;;;;;;;10.70;7.57;;;-2.50;99.90;;;;;;5025604;28;20018;-96
2023/04/06 03:28:52;;;;;;;14.23;6.87;;;-2.50;99.90;;;;;;5017720;28;20357;-96
2023/04/06 03:31:18;;;;;;;14.10;7.57;;;-2.50;99.90;;;;;;5020316;28;20414;-96
2023/04/06 03:33:44;;;;;;;14.53;8.50;;;-2.60;99.90;;;;;;5037695;28;20069;-96
2023/04/06 03:36:10;;;;;;;16.13;7.53;;;-2.60;99.90;;;;;;5058438;28;20459;-95
2023/04/06 03:38:37;;;;;;;12.53;7.63;;;-2.60;99.90;;;;;;5040916;28;20466;-96
2023/04/06 03:41:05;;;;;;;12.73;8.13;;;-2.60;99.90;;;;;;5056819;28;20132;-96
2023/04/06 03:43:31;;;;;;;14.33;7.93;;;-2.60;99.90;;;;;;5041013;28;20410;-96
2023/04/06 03:45:57;;;;;;;13.00;7.57;;;-2.60;99.90;;;;;;5041060;28;20024;-96
2023/04/06 03:48:23;;;;;;;13.90;8.63;;;-2.60;99.90;;;;;;5040306;28;20021;-95
2023/04/06 03:50:49;;;;;;;12.33;7.40;;;-2.60;99.90;;;;;;5041193;28;20447;-95
2023/04/06 03:53:16;;;;;;;12.37;7.10;;;-2.60;99.90;;;;;;5041684;28;20127;-95
2023/04/06 03:55:42;;;;;;;14.57;8.23;;;-2.60;99.90;;;;;;5043913;28;20463;-94
2023/04/06 03:58:08;;;;;;;17.37;7.70;;;-2.60;99.90;;;;;;5043872;28;20403;-96
2023/04/06 04:00:34;;;;;;;14.60;7.77;;;-2.60;99.90;;;;;;5044242;28;20028;-95
2023/04/06 04:03:02;;;;;;;13.63;7.63;;;-2.60;99.90;;;;;;5043956;28;20120;-95
2023/04/06 04:05:28;;;;;;;13.47;7.80;;;-2.60;99.90;;;;;;5044552;28;20031;-96
2023/04/06 04:07:55;;;;;;;11.93;7.23;;;-2.50;99.90;;;;;;5044115;28;20017;-95
2023/04/06 04:10:22;;;;;;;17.43;9.03;;;-2.50;99.90;;;;;;5062225;28;20459;-96
2023/04/06 04:12:48;;;;;;;16.10;7.60;;;-2.50;99.90;;;;;;5043456;28;20483;-96
2023/04/06 04:15:14;;;;;;;16.80;8.90;;;-2.50;99.90;;;;;;5061284;28;20041;-96
2023/04/06 04:17:40;;;;;;;15.20;8.60;;;-2.50;99.90;;;;;;5043311;28;20041;-94
2023/04/06 04:20:07;;;;;;;23.57;7.90;;;-2.50;99.90;;;;;;5043736;28;20460;-96
2023/04/06 04:22:33;;;;;;;12.17;7.53;;;-2.50;99.90;;;;;;5059813;28;20044;-94
2023/04/06 04:24:59;;;;;;;12.57;7.83;;;-2.50;99.90;;;;;;5060400;28;20021;-96
2023/04/06 04:27:25;;;;;;;15.13;7.83;;;-2.50;99.90;;;;;;5044085;28;20464;-94
2023/04/06 04:29:51;;;;;;;11.57;7.17;;;-2.50;99.90;;;;;;5061767;28;20033;-95
2023/04/06 04:32:17;;;;;;;16.27;8.30;;;-2.50;99.90;;;;;;5043591;28;20135;-95
2023/04/06 04:34:44;;;;;;;11.53;7.63;;;-2.60;99.90;;;;;;5043776;28;20116;-95
2023/04/06 04:37:10;;;;;;;12.47;7.77;;;-2.60;99.90;;;;;;5045051;28;20431;-96
2023/04/06 04:39:36;;;;;;;13.60;9.13;;;-2.60;99.90;;;;;;5044285;28;20094;-96
2023/04/06 04:42:02;;;;;;;10.90;8.23;;;-2.60;99.90;;;;;;5043676;28;20028;-96
2023/04/06 04:44:28;;;;;;;14.33;8.90;;;-2.70;99.90;;;;;;5043911;28;20367;-96
2023/04/06 04:46:54;;;;;;;13.63;8.63;;;-2.60;99.90;;;;;;5060959;28;20025;-96
2023/04/06 04:49:20;;;;;;;13.77;8.60;;;-2.70;99.90;;;;;;5045290;28;20032;-96
2023/04/06 04:51:47;;;;;;;14.37;9.67;;;-2.70;99.90;;;;;;5044956;28;20447;-96
2023/04/06 04:54:16;;;;;;;16.77;9.83;;;-2.60;99.90;;;;;;5044539;28;20037;-96
2023/04/06 04:56:48;;;;;;;17.93;8.90;;;-2.60;99.90;;;;;;5060101;28;20067;-96
2023/04/06 04:59:16;;;;;;;15.57;9.53;;;-2.60;99.90;;;;;;5042849;28;20031;-85
2023/04/06 05:01:42;;;;;;;17.33;8.93;;;-2.60;99.90;;;;;;5057555;28;20055;-92
2023/04/06 05:04:08;;;;;;;13.77;9.20;;;-2.60;99.90;;;;;;5041676;28;20487;-92
2023/04/06 05:06:34;;;;;;;16.17;8.53;;;-2.50;99.90;;;;;;5059380;28;20017;-93
2023/04/06 05:09:00;;;;;;;14.40;9.13;;;-2.50;99.90;;;;;;5041368;28;20451;-92
2023/04/06 05:11:27;;;;;;;14.17;8.87;;;-2.50;99.90;;;;;;5060488;28;20470;-93
2023/04/06 05:13:53;;;;;;;15.43;9.20;;;-2.40;99.90;;;;;;5057453;28;20419;-92
2023/04/06 05:16:20;;;;;;;13.07;8.80;;;-2.40;99.90;;;;;;5040677;28;20513;-92
2023/04/06 05:18:48;;;;;;;14.07;9.50;;;-2.40;99.90;;;;;;5059205;28;20041;-93
2023/04/06 05:21:14;;;;;;;15.07;9.50;;;-2.30;99.90;;;;;;5040515;28;20417;-93
2023/04/06 05:23:41;;;;;;;14.00;8.53;;;-2.20;99.90;;;;;;5041841;28;20462;-92
2023/04/06 05:26:07;;;;;;;14.80;9.23;;;-2.20;99.90;;;;;;5058764;28;20364;-93
2023/04/06 05:28:36;;;;;;;15.77;8.93;;;-2.10;99.90;;;;;;5064442;28;20031;-91
2023/04/06 05:31:02;;;;;;;14.57;8.10;;;-2.10;99.90;;;;;;5068862;28;20439;-89
2023/04/06 05:33:29;;;;;;;16.30;8.87;;;-1.90;99.90;;;;;;5059477;28;20463;-93
2023/04/06 05:35:56;;;;;;;13.90;8.87;;;-1.90;99.90;;;;;;5043142;28;20021;-94
2023/04/06 05:38:22;;;;;;;18.17;9.30;;;-1.90;99.90;;;;;;5059154;28;20036;-92
2023/04/06 05:40:49;;;;;;;15.30;9.00;;;-1.80;99.90;;;;;;5042225;28;20375;-92
2023/04/06 05:43:15;;;;;;;13.73;9.00;;;-1.70;99.90;;;;;;5040976;28;20362;-92
2023/04/06 05:45:41;;;;;;;13.33;8.87;;;-1.70;99.90;;;;;;5041300;28;20383;-93
2023/04/06 05:48:07;;;;;;;15.93;10.17;;;-1.70;99.90;;;;;;5059630;28;20439;-94
2023/04/06 05:50:34;;;;;;;19.83;9.70;;;-1.60;99.90;;;;;;5040470;28;20440;-94
2023/04/06 05:53:00;;;;;;;16.27;9.53;;;-1.60;99.90;;;;;;5041423;28;20525;-92
2023/04/06 05:55:27;;;;;;;16.07;9.60;;;-1.60;99.90;;;;;;5059404;28;20021;-92
2023/04/06 05:57:53;;;;;;;12.83;9.47;;;-1.50;99.90;;;;;;5040371;28;20020;-91
2023/04/06 06:00:20;;;;;;;16.03;10.43;;;-1.40;99.90;;;;;;5058532;28;20498;-92
2023/04/06 06:02:46;;;;;;;17.73;9.73;;;-1.30;99.90;;;;;;5040157;28;20028;-92
2023/04/06 06:05:13;;;;;;;17.30;8.90;;;-1.20;99.90;;;;;;5040819;28;20426;-92
2023/04/06 06:07:39;;;;;;;16.03;9.00;;;-1.10;99.90;;;;;;5039535;28;20423;-92
2023/04/06 06:10:06;;;;;;;17.80;9.27;;;-1.00;99.90;;;;;;5056313;28;20021;-92
2023/04/06 06:12:33;;;;;;;15.83;9.70;;;-0.90;99.90;;;;;;5039791;28;20021;-93
2023/04/06 06:15:00;;;;;;;14.37;8.77;;;-0.80;99.90;;;;;;5039952;28;20308;-91
2023/04/06 06:17:26;;;;;;;18.13;9.07;;;-0.70;99.90;;;;;;5055208;28;20440;-91
2023/04/06 06:19:52;;;;;;;19.33;8.53;;;-0.60;99.90;;;;;;5038323;28;20090;-91
2023/04/06 06:22:17;;;;;;;18.47;10.10;;;-0.40;99.90;;;;;;5055597;28;20025;-90
2023/04/06 06:24:43;;;;;;;17.07;9.37;;;-0.40;99.90;;;;;;5056505;28;20017;-89
2023/04/06 06:27:09;;;;;;;15.60;8.13;;;-0.20;99.90;;;;;;5054837;28;20027;-90
2023/04/06 06:29:35;;;;;;;15.67;8.63;;;-0.10;99.90;;;;;;5055985;28;20074;-90
2023/04/06 06:32:01;;;;;;;18.50;8.03;;;0.00;99.90;;;;;;5038286;28;20424;-89
2023/04/06 06:34:27;;;;;;;16.63;8.57;;;0.20;99.90;;;;;;5053910;28;20053;-90
2023/04/06 06:36:55;;;;;;;22.50;8.77;;;0.30;99.90;;;;;;5055388;28;20060;-84
2023/04/06 06:39:22;;;;;;;18.40;8.97;;;0.40;99.90;;;;;;5056418;28;20397;-92
2023/04/06 06:41:49;;;;;;;16.77;8.60;;;0.60;99.90;;;;;;5057452;28;20474;-92
2023/04/06 06:44:21;;;;;;;11.90;7.03;;;0.70;99.90;;;;;;5057345;28;20028;-91
2023/04/06 06:46:48;;;;;;;17.43;7.43;;;0.90;99.90;;;;;;5056354;28;20527;-94
2023/04/06 06:49:14;;;;;;;10.63;6.97;;;1.10;99.90;;;;;;5056782;28;20040;-90
2023/04/06 06:51:40;;;;;;;9.50;6.93;;;1.30;99.90;;;;;;5037177;28;20377;-90
2023/04/06 06:54:07;;;;;;;14.10;7.13;;;1.50;99.90;;;;;;5054769;28;20067;-90
2023/04/06 06:56:35;;;;;;;12.23;7.27;;;1.70;99.90;;;;;;5056261;28;20400;-92
2023/04/06 06:59:01;;;;;;;12.80;7.27;;;1.90;99.90;;;;;;5038300;28;20424;-93
2023/04/06 07:01:27;;;;;;;15.33;7.67;;;2.00;99.90;;;;;;5054484;28;20027;-92
2023/04/06 07:03:53;;;;;;;13.50;6.87;;;2.20;99.90;;;;;;5055964;28;20021;-93
2023/04/06 07:06:20;;;;;;;13.73;6.73;;;2.30;99.90;;;;;;5057216;28;20441;-91
2023/04/06 07:08:45;;;;;;;11.80;7.47;;;2.40;99.90;;;;;;5056365;28;20021;-93
2023/04/06 07:11:14;;;;;;;10.73;7.07;;;2.50;99.90;;;;;;5054690;28;20134;-92
2023/04/06 07:13:41;;;;;;;13.50;7.00;;;2.70;99.90;;;;;;5038119;28;20386;-92
2023/04/06 07:16:07;;;;;;;9.93;6.87;;;2.80;99.90;;;;;;5054852;28;20049;-90
2023/04/06 07:18:33;;;;;;;10.37;6.73;;;2.90;99.90;;;;;;5037918;28;20051;-92
2023/04/06 07:20:59;;;;;;;10.70;6.43;;;3.10;99.90;;;;;;5037643;28;20029;-91
2023/04/06 07:23:25;;;;;;;14.00;6.60;;;3.10;99.90;;;;;;5054013;28;20451;-92
2023/04/06 07:25:53;;;;;;;13.80;6.87;;;3.20;99.90;;;;;;5037815;28;20032;-92
2023/04/06 07:28:19;;;;;;;11.43;6.60;;;3.20;99.90;;;;;;5041146;28;20404;-92
2023/04/06 07:30:45;;;;;;;10.80;7.13;;;3.30;99.90;;;;;;5042060;28;20047;-92
2023/04/06 07:33:11;;;;;;;10.10;6.17;;;3.30;99.90;;;;;;5038288;28;20167;-91
2023/04/06 07:35:37;;;;;;;15.03;5.97;;;3.50;99.90;;;;;;5040110;28;20040;-93
2023/04/06 07:38:04;;;;;;;12.10;5.90;;;3.60;99.90;;;;;;5039090;28;20025;-92
2023/04/06 07:40:31;;;;;;;13.40;6.30;;;3.80;99.90;;;;;;5039585;28;20518;-93
2023/04/06 07:42:57;;;;;;;9.97;6.30;;;4.00;99.90;;;;;;5039405;28;20393;-92
2023/04/06 07:45:23;;;;;;;10.23;6.33;;;4.30;99.90;;;;;;5039649;28;20444;-93
2023/04/06 07:47:49;;;;;;;12.07;6.03;;;4.60;99.90;;;;;;5039631;28;20026;-92
2023/04/06 07:50:15;;;;;;;9.60;6.07;;;4.80;99.90;;;;;;5038957;28;20072;-92
2023/04/06 07:52:41;;;;;;;13.83;7.60;;;5.00;99.90;;;;;;5054583;28;20452;-93
2023/04/06 07:55:08;;;;;;;13.87;6.70;;;5.20;99.90;;;;;;5038465;28;20235;-91
2023/04/06 07:57:34;;;;;;;11.50;6.00;;;5.40;99.90;;;;;;5037873;28;20337;-88
2023/04/06 08:00:00;;;;;;;9.70;6.13;;;5.70;99.90;;;;;;5039454;28;20468;-90
2023/04/06 08:02:26;;;;;;;12.00;6.50;;;5.90;99.90;;;;;;5054612;28;20501;-89
2023/04/06 08:04:52;;;;;;;11.67;7.10;;;6.00;99.90;;;;;;5038062;28;20021;-90
2023/04/06 08:07:18;;;;;;;10.90;6.40;;;6.10;99.90;;;;;;5056828;28;20032;-89
2023/04/06 08:09:44;;;;;;;9.43;6.30;;;6.30;99.90;;;;;;5040833;28;20052;-90
2023/04/06 08:12:11;;;;;;;13.20;7.43;;;6.40;99.90;;;;;;5037839;28;20460;-90
2023/04/06 08:14:39;;;;;;;11.20;6.17;;;6.50;99.90;;;;;;5037978;28;20451;-91
2023/04/06 08:17:05;;;;;;;10.90;6.80;;;6.60;99.90;;;;;;5055100;28;20460;-90
2023/04/06 08:19:32;;;;;;;9.17;6.27;;;6.60;99.90;;;;;;5054102;28;20340;-90
2023/04/06 08:21:58;;;;;;;12.30;6.63;;;6.60;99.90;;;;;;5036716;28;20436;-91
2023/04/06 08:24:25;;;;;;;9.87;6.33;;;6.60;99.90;;;;;;5035744;28;20026;-81
2023/04/06 08:26:51;;;;;;;9.90;6.93;;;6.60;99.90;;;;;;5039993;28;20460;-93
2023/04/06 08:29:17;;;;;;;13.27;7.07;;;6.60;99.90;;;;;;5039744;28;20029;-91
2023/04/06 08:31:43;;;;;;;13.57;8.00;;;6.70;99.90;;;;;;5055683;28;20040;-92
2023/04/06 08:34:10;;;;;;;12.27;7.30;;;6.70;99.90;;;;;;5055136;28;20125;-93
2023/04/06 08:36:35;;;;;;;17.43;7.83;;;6.70;99.90;;;;;;5055214;28;20429;-91
2023/04/06 08:39:01;;;;;;;11.67;7.60;;;6.70;99.90;;;;;;5054326;28;20025;-91
2023/04/06 08:41:28;;;;;;;12.37;6.90;;;6.90;99.90;;;;;;5038988;28;20021;-92
2023/04/06 08:44:00;;;;;;;13.33;6.67;;;6.90;99.90;;;;;;5054832;28;20417;-92
2023/04/06 08:46:29;;;;;;;11.23;6.97;;;7.00;99.90;;;;;;5055596;28;20021;-93
2023/04/06 08:48:59;;;;;;;13.37;7.00;;;7.00;99.90;;;;;;5056271;28;20424;-92
2023/04/06 08:51:26;;;;;;;16.10;7.80;;;7.10;99.90;;;;;;5040054;28;20411;-93
2023/04/06 08:53:57;;;;;;;14.17;7.90;;;7.10;99.90;;;;;;5055094;28;20444;-92
2023/04/06 08:56:24;;;;;;;12.57;7.77;;;7.20;99.90;;;;;;5055563;28;20064;-93
2023/04/06 08:58:51;;;;;;;18.70;7.07;;;7.30;99.90;;;;;;5056172;28;20455;-93
2023/04/06 09:01:20;;;;;;;12.77;7.23;;;7.50;99.90;;;;;;5055926;28;20432;-92
2023/04/06 09:03:48;;;;;;;14.93;7.97;;;7.70;99.90;;;;;;5055840;28;20026;-92
2023/04/06 09:06:15;;;;;;;14.83;7.47;;;7.80;99.90;;;;;;5055898;28;20452;-94
2023/04/06 09:08:43;;;;;;;10.33;7.13;;;7.90;99.90;;;;;;5055760;28;20452;-93
2023/04/06 09:11:09;;;;;;;13.83;7.47;;;8.00;99.90;;;;;;5039354;28;20414;-94
2023/04/06 09:13:49;;;;;;;13.97;7.20;;;8.20;99.90;;;;;;5038831;28;20030;-94
2023/04/06 09:16:16;;;;;;;12.73;7.23;;;8.40;99.90;;;;;;5040172;28;20095;-92
2023/04/06 09:18:42;;;;;;;10.73;7.43;;;8.50;99.90;;;;;;5037942;28;20475;-94
2023/04/06 09:21:09;;;;;;;11.30;7.03;;;8.80;99.90;;;;;;5055258;28;20440;-94
2023/04/06 09:23:35;;;;;;;13.97;7.33;;;9.00;99.90;;;;;;5038662;28;20364;-93
2023/04/06 09:26:10;;;;;;;11.17;7.53;;;9.10;99.90;;;;;;5054973;28;20415;-93
2023/04/06 09:28:54;;;;;;;14.90;7.30;;;9.30;99.30;;;;;;5038329;28;20063;-93
2023/04/06 09:31:24;;;;;;;12.07;8.17;;;9.30;99.90;;;;;;5053627;28;20506;-93
2023/04/06 09:33:54;;;;;;;11.73;7.27;;;9.40;99.50;;;;;;5053872;28;20360;-94
2023/04/06 09:36:31;;;;;;;14.60;7.50;;;9.60;98.40;;;;;;5036296;28;20385;-95
2023/04/06 09:39:03;;;;;;;17.20;7.83;;;9.80;98.50;;;;;;5039450;28;20088;-94
2023/04/06 09:41:34;;;;;;;10.67;7.17;;;9.80;98.70;;;;;;5054656;28;20455;-81
2023/04/06 09:44:07;;;;;;;12.10;8.40;;;9.90;97.30;;;;;;5038757;28;20325;-94
2023/04/06 09:46:39;;;;;;;14.07;7.77;;;10.20;96.60;;;;;;5055660;28;20428;-95
2023/04/06 09:49:06;;;;;;;13.57;7.90;;;10.30;97.10;;;;;;5041844;28;20026;-94
2023/04/06 09:51:48;;;;;;;11.37;7.17;;;10.30;96.80;;;;;;5042588;28;20048;-93
2023/04/06 09:54:30;;;;;;;11.87;8.10;;;10.20;96.90;;;;;;5044184;28;20017;-94
2023/04/06 09:57:08;;;;;;;11.37;7.83;;;10.10;95.50;;;;;;5045951;28;20344;-94
2023/04/06 09:59:57;;;;;;;12.80;7.80;;;10.10;95.20;;;;;;5060647;28;20056;-94
2023/04/06 10:02:44;;;;;;;13.23;8.23;;;10.10;94.40;;;;;;5055699;28;20380;-96
2023/04/06 10:05:14;;;;;;;12.47;8.03;;;10.30;94.00;;;;;;5044259;28;20520;-96
2023/04/06 10:07:42;;;;;;;13.50;8.23;;;10.20;95.10;;;;;;5057675;28;20358;-96
2023/04/06 10:10:09;;;;;;;12.43;7.93;;;10.40;96.30;;;;;;5049477;28;20547;-85
2023/04/06 10:12:38;;;;;;;10.63;8.47;;;10.70;96.00;;;;;;5037516;28;20469;-93
2023/04/06 10:18:26;;;;;;;11.67;8.17;;;11.10;94.40;;;;;;5038442;28;20028;-94
2023/04/06 10:21:06;;;;;;;10.90;8.10;;;11.40;94.40;;;;;;5038187;28;20106;-93
2023/04/06 10:23:40;;;;;;;12.18;7.75;;;11.70;95.20;;;;;;5036878;28;20467;-96
2023/04/06 10:26:12;;;;;;;11.65;8.10;;;12.00;93.40;;;;;;5054045;28;20046;-95
2023/04/06 10:28:41;;;;;;;12.93;8.13;;;12.50;91.70;;;;;;5053282;28;20317;-95
2023/04/06 10:31:07;;;;;;;9.38;7.22;;;12.50;92.10;;;;;;5053791;28;20041;-92
2023/04/06 10:33:33;;;;;;;11.30;7.93;;;12.80;90.70;;;;;;5052143;28;20097;-94
2023/04/06 10:36:12;;;;;;;10.57;7.53;;;12.90;91.50;;;;;;5053613;28;20376;-93
2023/04/06 10:38:39;;;;;;;10.50;7.88;;;13.20;90.00;;;;;;5036509;28;20432;-91
2023/04/06 10:41:06;;;;;;;11.65;8.10;;;13.20;89.20;;;;;;5050299;28;20404;-90
2023/04/06 10:43:37;;;;;;;12.07;8.23;;;12.90;88.30;;;;;;5050259;28;20446;-91
2023/04/06 10:46:05;;;;;;;11.25;7.82;;;12.30;86.90;;;;;;5032809;28;20324;-84
2023/04/06 10:48:43;;;;;;;10.85;7.95;;;11.90;88.60;;;;;;5040835;28;20432;-96
2023/04/06 10:51:15;;;;;;;11.38;7.20;;;11.60;90.10;;;;;;5047712;28;20467;-95
2023/04/06 10:53:48;;;;;;;10.50;7.80;;;11.30;90.60;;;;;;5066649;28;20036;-96
2023/04/06 10:56:17;;;;;;;15.20;8.77;;;11.00;91.20;;;;;;5045417;28;20052;-95
2023/04/06 10:58:48;;;;;;;13.40;7.70;;;10.70;91.50;;;;;;5039686;28;20440;-96
2023/04/06 11:01:33;;;;;;;11.23;8.47;;;10.40;91.90;;;;;;5046686;28;20034;-96
2023/04/06 11:07:08;;;;;;;9.60;7.50;;;10.00;91.20;;;;;;5092827;22;20053;-95
2023/04/06 11:09:49;;;;;;;14.63;8.47;;;9.80;92.30;;;;;;5048292;28;20028;-94
2023/04/06 11:12:34;;;;;;;;;;;;;;;;;;;;;
2023/04/06 11:15:10;;;;;;;10.00;6.80;;;9.80;93.80;;;;;;5052454;28;20045;-96
2023/04/06 11:17:39;;;;;;;10.33;7.33;;;10.10;92.20;;;;;;5028995;28;20368;-95
2023/04/06 11:20:20;;;;;;;8.77;6.33;;;10.50;91.80;;;;;;5022969;28;20033;-96
2023/04/06 11:22:51;;;;;;;10.55;6.68;;;11.10;90.70;;;;;;5023029;28;20091;-96
2023/04/06 11:25:20;;;;;;;8.65;5.78;;;11.80;89.10;;;;;;5024370;28;20021;-95
2023/04/06 11:27:59;;;;;;;6.80;5.40;;;12.30;86.70;;;;;;5029720;28;20021;-95
2023/04/06 11:30:30;;;;;;;8.35;5.75;;;12.50;87.60;;;;;;5030818;28;20065;-96
2023/04/06 11:36:21;;;;;;;7.55;5.15;;;13.00;84.80;;;;;;5017857;28;20060;-95
2023/04/06 11:38:50;;;;;;;10.32;5.90;;;13.20;83.40;;;;;;5030251;28;20032;-96
2023/04/06 11:41:32;;;;;;;6.93;5.47;;;13.00;82.20;;;;;;5024200;28;20013;-96
2023/04/06 11:44:02;;;;;;;8.63;6.07;;;12.90;83.30;;;;;;5039038;28;20021;-95
2023/04/06 11:46:29;;;;;;;6.63;4.82;;;13.10;85.80;;;;;;5021896;28;20379;-93
2023/04/06 11:49:00;;;;;;;8.20;5.10;;;13.30;80.40;;;;;;5038691;28;20169;-94
2023/04/06 11:51:29;;;;;;;7.95;5.63;;;13.40;79.10;;;;;;5038516;28;20441;-94
2023/04/06 11:53:55;;;;;;;12.15;6.03;;;13.30;82.10;;;;;;5020581;28;20033;-94
2023/04/06 11:56:30;;;;;;;8.23;5.70;;;13.10;78.00;;;;;;5020672;28;20312;-93
2023/04/06 11:58:59;;;;;;;9.50;6.15;;;12.80;79.90;;;;;;5020094;28;20017;-94
2023/04/06 12:01:26;;;;;;;9.05;5.53;;;12.70;81.60;;;;;;5020519;28;20029;-94
2023/04/06 12:03:53;;;;;;;9.45;6.45;;;12.90;80.40;;;;;;5037860;28;20409;-96
2023/04/06 12:06:19;;;;;;;8.13;5.90;;;13.30;79.90;;;;;;5020669;28;20583;-94
2023/04/06 12:08:45;;;;;;;8.82;5.78;;;13.70;79.20;;;;;;5036764;28;20021;-94
2023/04/06 12:11:12;;;;;;;8.00;5.95;;;13.80;80.90;;;;;;5036827;28;20040;-94
2023/04/06 12:13:38;;;;;;;9.02;6.15;;;14.00;80.30;;;;;;5021488;28;20052;-96
2023/04/06 12:16:05;;;;;;;8.13;5.72;;;14.20;78.60;;;;;;5025321;28;20093;-93
2023/04/06 12:18:31;;;;;;;8.88;5.70;;;14.20;75.10;;;;;;5023414;28;20467;-94
2023/04/06 12:20:57;;;;;;;8.77;5.85;;;14.10;73.70;;;;;;5023550;28;20022;-93
2023/04/06 12:23:24;;;;;;;9.45;5.70;;;14.40;74.60;;;;;;5023798;28;20349;-95
2023/04/06 12:25:51;;;;;;;7.45;5.60;;;14.70;73.90;;;;;;5025535;28;20036;-96
2023/04/06 12:28:17;;;;;;;9.20;6.25;;;14.90;72.40;;;;;;5025524;28;20033;-96
2023/04/06 12:30:45;;;;;;;8.20;6.07;;;15.00;73.40;;;;;;5025048;28;20040;-96
2023/04/06 12:33:12;;;;;;;8.55;5.85;;;15.00;76.10;;;;;;5028422;28;20025;-96
2023/04/06 12:35:38;;;;;;;10.65;6.25;;;14.90;74.40;;;;;;5030841;28;20431;-91
2023/04/06 12:38:04;;;;;;;9.82;6.90;;;15.10;73.80;;;;;;5021684;28;20397;-90
2023/04/06 12:40:30;;;;;;;9.02;6.13;;;14.90;74.50;;;;;;5022788;28;20389;-94
2023/04/06 12:42:56;;;;;;;10.32;6.95;;;14.50;75.20;;;;;;5020133;28;20392;-83
2023/04/06 12:48:44;;;;;;;10.50;7.25;;;14.20;75.00;;;;;;5033748;28;20041;-84
2023/04/06 12:51:10;;;;;;;11.52;6.88;;;14.00;72.30;;;;;;5034634;28;20045;-95
2023/04/06 12:53:38;;;;;;;8.38;6.60;;;13.50;74.20;;;;;;5043656;28;20440;-95
2023/04/06 12:56:17;;;;;;;7.95;5.68;;;13.00;78.20;;;;;;5046584;28;20037;-95
2023/04/06 12:58:45;;;;;;;9.07;6.07;;;12.60;76.00;;;;;;5044671;28;20427;-96
2023/04/06 13:01:12;;;;;;;9.30;6.93;;;12.30;78.60;;;;;;5022580;28;20451;-94
2023/04/06 13:03:39;;;;;;;8.65;6.53;;;12.10;79.30;;;;;;5022777;28;20435;-95
2023/04/06 13:06:08;;;;;;;22.10;12.82;;;12.40;79.10;;;;;;5040618;28;20113;-96
2023/04/06 13:08:43;;;;;;;14.13;9.13;;;12.90;78.00;;;;;;5044573;28;20482;-96
2023/04/06 13:11:09;;;;;;;10.73;6.57;;;13.10;77.50;;;;;;5040375;28;20487;-93
2023/04/06 13:13:36;;;;;;;9.25;6.22;;;13.10;78.10;;;;;;5039048;28;20116;-93
2023/04/06 13:16:08;;;;;;;8.05;5.70;;;12.70;79.00;;;;;;5021339;28;20460;-93
2023/04/06 13:18:36;;;;;;;11.10;6.15;;;12.40;79.30;;;;;;5022289;28;20068;-93
2023/04/06 13:21:02;;;;;;;8.05;6.07;;;12.10;78.30;;;;;;5038282;28;20547;-95
2023/04/06 13:23:28;;;;;;;9.82;5.95;;;11.90;82.70;;;;;;5039908;28;20325;-93
2023/04/06 13:26:06;;;;;;;7.65;5.45;;;11.80;83.50;;;;;;5020925;28;20455;-92
2023/04/06 13:28:33;;;;;;;8.05;5.47;;;12.10;83.80;;;;;;5036606;28;20479;-93
2023/04/06 13:31:01;;;;;;;6.75;5.22;;;12.50;82.20;;;;;;5021248;28;20417;-95
2023/04/06 13:33:28;;;;;;;8.55;5.55;;;13.00;81.40;;;;;;5022182;28;20392;-93
2023/04/06 13:35:54;;;;;;;7.82;5.82;;;13.50;79.60;;;;;;5038584;28;20018;-94
2023/04/06 13:38:20;;;;;;;7.72;5.50;;;13.80;76.40;;;;;;5039354;28;20471;-92
2023/04/06 13:40:46;;;;;;;7.05;4.60;;;14.10;75.90;;;;;;5040624;28;20425;-94
2023/04/06 13:43:12;;;;;;;6.85;4.97;;;14.30;75.60;;;;;;5038299;28;20017;-84
2023/04/06 13:45:38;;;;;;;6.38;4.50;;;14.60;71.80;;;;;;5032416;28;20440;-83
2023/04/06 13:48:05;;;;;;;5.50;4.45;;;14.60;74.40;;;;;;5032990;28;20471;-86
2023/04/06 13:50:30;;;;;;;6.85;4.75;;;14.30;74.70;;;;;;5032637;28;20452;-86
2023/04/06 13:52:56;;;;;;;6.15;4.75;;;13.80;74.00;;;;;;5032809;28;20021;-85
2023/04/06 13:55:25;;;;;;;5.57;4.53;;;13.30;73.70;;;;;;5032377;28;20021;-86
2023/04/06 13:57:51;;;;;;;7.68;4.68;;;12.90;74.50;;;;;;5032413;28;20401;-86
2023/04/06 14:00:19;;;;;;;7.50;4.53;;;12.60;76.00;;;;;;5014726;28;20463;-85
2023/04/06 14:02:44;;;;;;;8.00;4.47;;;12.30;74.50;;;;;;5032337;28;20448;-87
2023/04/06 14:05:11;;;;;;;5.57;4.00;;;12.20;76.40;;;;;;5032037;28;20068;-86
2023/04/06 14:07:37;;;;;;;8.35;4.30;;;12.60;75.90;;;;;;5032303;28;20539;-85
2023/04/06 14:10:03;;;;;;;5.70;4.70;;;12.80;76.00;;;;;;5031852;28;20454;-85
2023/04/06 14:12:31;;;;;;;7.03;4.28;;;12.80;76.30;;;;;;5032475;28;20456;-85
2023/04/06 14:14:57;;;;;;;5.78;4.70;;;12.70;76.70;;;;;;5031968;28;20452;-84
2023/04/06 14:17:24;;;;;;;6.85;4.55;;;12.50;75.60;;;;;;5032417;28;20483;-85
2023/04/06 14:19:50;;;;;;;5.80;4.40;;;12.30;79.20;;;;;;5014551;28;20437;-84
2023/04/06 14:22:17;;;;;;;6.05;4.50;;;12.30;77.10;;;;;;5032386;28;20029;-84
2023/04/06 14:24:43;;;;;;;9.05;3.92;;;12.30;77.10;;;;;;5032574;28;20490;-89
2023/04/06 14:27:09;;;;;;;6.45;4.43;;;12.60;75.40;;;;;;5014382;28;20053;-89
2023/04/06 14:29:35;;;;;;;6.20;4.00;;;12.90;75.10;;;;;;5032330;28;20041;-89
2023/04/06 14:32:01;;;;;;;5.82;4.20;;;13.30;75.10;;;;;;5032531;28;20405;-92